Flight Track Log - Related Links

Times and Time Zones

All times are in EDT time to prevent confusion due to time zone crossing. See the N6829K flight status page for this flight to view local times or setup timezone preferences in your user account.

Time Position Orientation Groundspeed Altitude Reporting Facility
EDT Latitude Longitude Course Direction KTS MPH feet Rate Location/Type
Thu 06:23:12 PM 46.8572 -97.0119 215° Southwest 172 198 5,100  Level Minneapolis Center
Thu 06:24:14 PM 46.8153 -97.0583 217° Southwest 180 207 6,300 1,065 Climbing Minneapolis Center
Thu 06:25:16 PM 46.7728 -97.1039 216° Southwest 183 211 7,300 823 Climbing Minneapolis Center
Thu 06:26:00 PM 46.6818 -97.0753 218° Southwest  Level FlightAware Approximate
Thu 06:26:18 PM 46.7283 -97.1494 215° Southwest 184 212 8,000  Level Minneapolis Center
Thu 06:27:00 PM 46.6422 -97.1203 218° Southwest  Level FlightAware Approximate
Thu 06:27:20 PM 46.6800 -97.1975 214° Southwest 200 230 8,000  Level Minneapolis Center
Thu 06:28:22 PM 46.6350 -97.2428 215° Southwest 202 232 8,000  Level Minneapolis Center
Thu 06:29:23 PM 46.5881 -97.2914 215° Southwest 200 230 8,000  Level Minneapolis Center
Thu 06:30:25 PM 46.5403 -97.3408 215° Southwest 200 230 8,000  Level Minneapolis Center
Thu 06:31:27 PM 46.4936 -97.3883 215° Southwest 198 228 8,000  Level Minneapolis Center
Thu 06:32:29 PM 46.4461 -97.4369 215° Southwest 200 230 8,000  Level Minneapolis Center
Thu 06:33:31 PM 46.3989 -97.4856 215° Southwest 199 229 8,000  Level Minneapolis Center
Thu 06:34:33 PM 46.3550 -97.5297 215° Southwest 200 230 8,000  Level Minneapolis Center
Thu 06:35:47 PM 46.3072 -97.5781 215° Southwest 199 229 8,000  Level Minneapolis Center
Thu 06:36:49 PM 46.2594 -97.6258 215° Southwest 203 234 8,000  Level Minneapolis Center
Thu 06:37:52 PM 46.2006 -97.6844 215° Southwest 201 231 8,000  Level Minneapolis Center
Thu 06:38:54 PM 46.1567 -97.7292 215° Southwest 199 229 8,000  Level Minneapolis Center
Thu 06:39:56 PM 46.1125 -97.7728 214° Southwest 199 229 8,000  Level Minneapolis Center
Thu 06:40:58 PM 46.0672 -97.8169 214° Southwest 198 228 8,000 -97 Level Minneapolis Center
Thu 06:42:00 PM 46.0214 -97.8614 214° Southwest 199 229 7,800 -387 Descending Minneapolis Center
Thu 06:43:02 PM 45.9658 -97.9167 215° Southwest 202 232 7,200 -484 Descending Minneapolis Center
Thu 06:44:04 PM 45.9183 -97.9692 218° Southwest 205 236 6,800 -387 Descending Minneapolis Center
Thu 06:45:06 PM 45.8731 -98.0136 214° Southwest 202 232 6,400 -435 Descending Minneapolis Center
Thu 06:46:08 PM 45.8267 -98.0561 213° Southwest 200 230 5,900 -441 Descending Minneapolis Center
Thu 06:47:22 PM 45.7789 -98.0969 211° Southwest 199 229 5,400 -405 Descending Minneapolis Center
Thu 06:49:00 PM 45.7100 -98.1560 211° Southwest  Level FlightAware Approximate
Thu 06:56:00 PM 45.4491 -98.4218 215° Southwest  Level Estimated
Thu 06:57:00 PM 45.4491 -98.4218 215° Southwest  Level Estimated
Thu 06:58:00 PM 45.4491 -98.4218 215° Southwest  Level Estimated
Thu 06:59:00 PM 45.4491 -98.4218 215° Southwest  Level Estimated

Login

Don't have an account? Register now (free) for customized features, flight alerts, and more!